Airport View

Enter ICAO identifier to see the current METAR for that AWOS.

KFNL for example

KMVN 021635Z AUTO 25010G14KT 10SM BKN021 BKN120 26/21 A2996 RMK AO1

2 Sep 2014 16:40

Frequency: 113.8

Phone: 618-242-7933

Other Area AWOS: KENL - KSLO - KFWC - KFOA

TAF KBLV 0216/0322 28010KT 9999 OVC014 QNH2993INS BECMG 0217/0218 28009KT 9999 SCT020 BKN030 BKN050 QNH2990INS BECMG 0300/0301 23006KT 9999 FEW030 SCT060 QNH2991INS BECMG 0317/0318 17012G18KT 9999 SCT040 BKN110 QNH2990INS TX28/0221Z TN20/0309Z